sensor_id;sensor_type;location;lat;lon;timestamp;P1;durP1;ratioP1;P2;durP2;ratioP2
67191;SDS011;54120;53.504;49.426;2022-07-10T00:00:39;16.80;;;11.98;;
67191;SDS011;54120;53.504;49.426;2022-07-10T00:03:05;17.02;;;12.23;;
67191;SDS011;54120;53.504;49.426;2022-07-10T00:05:32;16.83;;;12.18;;
67191;SDS011;54120;53.504;49.426;2022-07-10T00:08:00;13.63;;;11.65;;
67191;SDS011;54120;53.504;49.426;2022-07-10T00:10:26;12.90;;;11.50;;
67191;SDS011;54120;53.504;49.426;2022-07-10T00:12:54;24.23;;;12.10;;
67191;SDS011;54120;53.504;49.426;2022-07-10T00:15:20;14.30;;;12.10;;
67191;SDS011;54120;53.504;49.426;2022-07-10T00:17:47;14.80;;;11.52;;
67191;SDS011;54120;53.504;49.426;2022-07-10T00:20:13;13.43;;;11.27;;
67191;SDS011;54120;53.504;49.426;2022-07-10T00:22:40;13.55;;;12.15;;
67191;SDS011;54120;53.504;49.426;2022-07-10T00:25:07;16.58;;;11.63;;
67191;SDS011;54120;53.504;49.426;2022-07-10T00:27:36;13.00;;;11.55;;
67191;SDS011;54120;53.504;49.426;2022-07-10T00:30:03;17.73;;;12.00;;
67191;SDS011;54120;53.504;49.426;2022-07-10T00:32:30;17.42;;;10.75;;
67191;SDS011;54120;53.504;49.426;2022-07-10T00:34:57;14.32;;;11.18;;
67191;SDS011;54120;53.504;49.426;2022-07-10T00:37:23;12.45;;;10.98;;
67191;SDS011;54120;53.504;49.426;2022-07-10T00:39:49;14.10;;;11.35;;
67191;SDS011;54120;53.504;49.426;2022-07-10T00:42:15;16.00;;;11.40;;
67191;SDS011;54120;53.504;49.426;2022-07-10T00:44:42;13.30;;;11.65;;
67191;SDS011;54120;53.504;49.426;2022-07-10T00:47:09;19.00;;;11.30;;
67191;SDS011;54120;53.504;49.426;2022-07-10T00:49:37;16.02;;;12.43;;
67191;SDS011;54120;53.504;49.426;2022-07-10T00:52:08;16.45;;;11.38;;
67191;SDS011;54120;53.504;49.426;2022-07-10T00:54:37;14.25;;;12.32;;
67191;SDS011;54120;53.504;49.426;2022-07-10T00:57:07;12.73;;;11.38;;
67191;SDS011;54120;53.504;49.426;2022-07-10T00:59:33;14.07;;;12.32;;
67191;SDS011;54120;53.504;49.426;2022-07-10T01:02:01;15.93;;;12.02;;
67191;SDS011;54120;53.504;49.426;2022-07-10T01:04:29;13.10;;;11.40;;
67191;SDS011;54120;53.504;49.426;2022-07-10T01:06:55;14.55;;;12.32;;
67191;SDS011;54120;53.504;49.426;2022-07-10T01:09:21;13.48;;;11.60;;
67191;SDS011;54120;53.504;49.426;2022-07-10T01:11:48;16.95;;;12.18;;
67191;SDS011;54120;53.504;49.426;2022-07-10T01:14:17;14.35;;;11.63;;
67191;SDS011;54120;53.504;49.426;2022-07-10T01:16:43;14.90;;;11.18;;
67191;SDS011;54120;53.504;49.426;2022-07-10T01:19:10;12.55;;;11.25;;
67191;SDS011;54120;53.504;49.426;2022-07-10T01:21:37;14.82;;;11.20;;
67191;SDS011;54120;53.504;49.426;2022-07-10T01:24:04;15.13;;;12.05;;
67191;SDS011;54120;53.504;49.426;2022-07-10T01:26:33;15.25;;;12.30;;
67191;SDS011;54120;53.504;49.426;2022-07-10T01:29:01;18.92;;;11.82;;
67191;SDS011;54120;53.504;49.426;2022-07-10T01:31:29;21.60;;;11.98;;
67191;SDS011;54120;53.504;49.426;2022-07-10T01:33:55;13.60;;;11.80;;
67191;SDS011;54120;53.504;49.426;2022-07-10T01:36:22;16.15;;;11.32;;
67191;SDS011;54120;53.504;49.426;2022-07-10T01:38:52;14.63;;;11.77;;
67191;SDS011;54120;53.504;49.426;2022-07-10T01:41:18;15.80;;;11.93;;
67191;SDS011;54120;53.504;49.426;2022-07-10T01:43:45;17.85;;;12.73;;
67191;SDS011;54120;53.504;49.426;2022-07-10T01:46:13;22.05;;;13.20;;
67191;SDS011;54120;53.504;49.426;2022-07-10T01:48:40;17.83;;;13.52;;
67191;SDS011;54120;53.504;49.426;2022-07-10T01:51:07;17.00;;;12.68;;
67191;SDS011;54120;53.504;49.426;2022-07-10T01:53:34;19.25;;;13.00;;
67191;SDS011;54120;53.504;49.426;2022-07-10T01:56:03;18.13;;;13.02;;
67191;SDS011;54120;53.504;49.426;2022-07-10T01:58:31;19.67;;;13.50;;
67191;SDS011;54120;53.504;49.426;2022-07-10T02:00:58;15.27;;;12.02;;
67191;SDS011;54120;53.504;49.426;2022-07-10T02:03:24;14.27;;;11.30;;
67191;SDS011;54120;53.504;49.426;2022-07-10T02:06:09;14.93;;;11.38;;
67191;SDS011;54120;53.504;49.426;2022-07-10T02:08:35;16.02;;;12.05;;
67191;SDS011;54120;53.504;49.426;2022-07-10T02:11:01;14.32;;;11.23;;
67191;SDS011;54120;53.504;49.426;2022-07-10T02:13:27;18.35;;;11.73;;
67191;SDS011;54120;53.504;49.426;2022-07-10T02:15:54;17.50;;;11.25;;
67191;SDS011;54120;53.504;49.426;2022-07-10T02:18:20;15.15;;;11.70;;
67191;SDS011;54120;53.504;49.426;2022-07-10T02:20:47;17.75;;;12.75;;
67191;SDS011;54120;53.504;49.426;2022-07-10T02:23:14;17.35;;;12.13;;
67191;SDS011;54120;53.504;49.426;2022-07-10T02:25:40;14.95;;;11.07;;
67191;SDS011;54120;53.504;49.426;2022-07-10T02:28:07;15.18;;;11.57;;
67191;SDS011;54120;53.504;49.426;2022-07-10T02:30:33;14.05;;;10.65;;
67191;SDS011;54120;53.504;49.426;2022-07-10T02:33:00;18.45;;;11.15;;
67191;SDS011;54120;53.504;49.426;2022-07-10T02:35:26;13.88;;;10.70;;
67191;SDS011;54120;53.504;49.426;2022-07-10T02:37:52;13.48;;;10.20;;
67191;SDS011;54120;53.504;49.426;2022-07-10T02:40:18;16.02;;;12.02;;
67191;SDS011;54120;53.504;49.426;2022-07-10T02:42:45;18.70;;;11.30;;
67191;SDS011;54120;53.504;49.426;2022-07-10T02:45:11;14.73;;;10.27;;
67191;SDS011;54120;53.504;49.426;2022-07-10T02:47:37;19.55;;;11.07;;
67191;SDS011;54120;53.504;49.426;2022-07-10T02:50:03;21.92;;;10.45;;
67191;SDS011;54120;53.504;49.426;2022-07-10T02:52:29;13.13;;;10.07;;
67191;SDS011;54120;53.504;49.426;2022-07-10T02:54:56;13.02;;;10.10;;
67191;SDS011;54120;53.504;49.426;2022-07-10T02:57:23;14.93;;;10.25;;
67191;SDS011;54120;53.504;49.426;2022-07-10T02:59:49;14.52;;;10.45;;
67191;SDS011;54120;53.504;49.426;2022-07-10T03:02:16;14.32;;;11.70;;
67191;SDS011;54120;53.504;49.426;2022-07-10T03:04:42;15.98;;;10.35;;
67191;SDS011;54120;53.504;49.426;2022-07-10T03:07:09;20.00;;;12.25;;
67191;SDS011;54120;53.504;49.426;2022-07-10T03:09:35;16.95;;;13.43;;
67191;SDS011;54120;53.504;49.426;2022-07-10T03:12:01;15.30;;;12.10;;
67191;SDS011;54120;53.504;49.426;2022-07-10T03:14:27;19.58;;;12.88;;
67191;SDS011;54120;53.504;49.426;2022-07-10T03:16:53;17.05;;;11.75;;
67191;SDS011;54120;53.504;49.426;2022-07-10T03:19:20;14.30;;;11.90;;
67191;SDS011;54120;53.504;49.426;2022-07-10T03:21:46;12.68;;;11.13;;
67191;SDS011;54120;53.504;49.426;2022-07-10T03:24:12;12.75;;;11.45;;
67191;SDS011;54120;53.504;49.426;2022-07-10T03:26:38;14.02;;;10.93;;
67191;SDS011;54120;53.504;49.426;2022-07-10T03:29:04;17.55;;;11.52;;
67191;SDS011;54120;53.504;49.426;2022-07-10T03:31:31;12.30;;;9.85;;
67191;SDS011;54120;53.504;49.426;2022-07-10T03:33:57;11.30;;;9.70;;
67191;SDS011;54120;53.504;49.426;2022-07-10T03:36:23;13.23;;;10.00;;
67191;SDS011;54120;53.504;49.426;2022-07-10T03:38:49;11.65;;;9.23;;
67191;SDS011;54120;53.504;49.426;2022-07-10T03:41:15;13.48;;;9.55;;
67191;SDS011;54120;53.504;49.426;2022-07-10T03:43:41;13.02;;;8.98;;
67191;SDS011;54120;53.504;49.426;2022-07-10T03:46:07;9.85;;;8.68;;
67191;SDS011;54120;53.504;49.426;2022-07-10T03:48:33;10.80;;;8.70;;
67191;SDS011;54120;53.504;49.426;2022-07-10T03:51:00;14.07;;;8.90;;
67191;SDS011;54120;53.504;49.426;2022-07-10T03:53:26;9.45;;;8.52;;
67191;SDS011;54120;53.504;49.426;2022-07-10T03:55:52;9.95;;;8.80;;
67191;SDS011;54120;53.504;49.426;2022-07-10T03:58:20;9.05;;;8.07;;
67191;SDS011;54120;53.504;49.426;2022-07-10T04:00:46;9.02;;;8.13;;
67191;SDS011;54120;53.504;49.426;2022-07-10T04:03:12;10.35;;;8.48;;
67191;SDS011;54120;53.504;49.426;2022-07-10T04:05:39;15.30;;;8.20;;
67191;SDS011;54120;53.504;49.426;2022-07-10T04:08:05;11.75;;;7.53;;
67191;SDS011;54120;53.504;49.426;2022-07-10T04:10:32;10.88;;;8.02;;
67191;SDS011;54120;53.504;49.426;2022-07-10T04:12:58;9.00;;;7.75;;
67191;SDS011;54120;53.504;49.426;2022-07-10T04:15:25;33.28;;;16.75;;
67191;SDS011;54120;53.504;49.426;2022-07-10T04:17:51;39.78;;;18.40;;
67191;SDS011;54120;53.504;49.426;2022-07-10T04:20:18;46.03;;;22.20;;
67191;SDS011;54120;53.504;49.426;2022-07-10T04:22:45;51.60;;;24.55;;
67191;SDS011;54120;53.504;49.426;2022-07-10T04:25:11;42.88;;;21.48;;
67191;SDS011;54120;53.504;49.426;2022-07-10T04:27:38;47.58;;;22.55;;
67191;SDS011;54120;53.504;49.426;2022-07-10T04:30:04;36.30;;;18.65;;
67191;SDS011;54120;53.504;49.426;2022-07-10T04:32:31;39.15;;;19.63;;
67191;SDS011;54120;53.504;49.426;2022-07-10T04:34:57;18.23;;;12.27;;
67191;SDS011;54120;53.504;49.426;2022-07-10T04:37:24;13.40;;;10.48;;
67191;SDS011;54120;53.504;49.426;2022-07-10T04:39:50;12.02;;;9.60;;
67191;SDS011;54120;53.504;49.426;2022-07-10T04:42:16;9.27;;;7.72;;
67191;SDS011;54120;53.504;49.426;2022-07-10T04:44:42;11.15;;;8.00;;
67191;SDS011;54120;53.504;49.426;2022-07-10T04:47:08;9.88;;;7.80;;
67191;SDS011;54120;53.504;49.426;2022-07-10T04:49:35;10.20;;;6.90;;
67191;SDS011;54120;53.504;49.426;2022-07-10T04:52:01;7.72;;;5.47;;
67191;SDS011;54120;53.504;49.426;2022-07-10T04:54:27;6.00;;;5.30;;
67191;SDS011;54120;53.504;49.426;2022-07-10T04:56:53;5.38;;;4.82;;
67191;SDS011;54120;53.504;49.426;2022-07-10T04:59:19;7.20;;;5.38;;
67191;SDS011;54120;53.504;49.426;2022-07-10T05:01:46;5.78;;;5.28;;
67191;SDS011;54120;53.504;49.426;2022-07-10T05:04:12;6.95;;;5.45;;
67191;SDS011;54120;53.504;49.426;2022-07-10T05:06:38;5.47;;;4.82;;
67191;SDS011;54120;53.504;49.426;2022-07-10T05:09:04;5.03;;;4.63;;
67191;SDS011;54120;53.504;49.426;2022-07-10T05:11:30;5.05;;;4.65;;
67191;SDS011;54120;53.504;49.426;2022-07-10T05:13:57;4.50;;;4.10;;
67191;SDS011;54120;53.504;49.426;2022-07-10T05:16:24;5.78;;;4.05;;
67191;SDS011;54120;53.504;49.426;2022-07-10T05:18:50;5.18;;;4.20;;
67191;SDS011;54120;53.504;49.426;2022-07-10T05:21:16;4.70;;;4.30;;
67191;SDS011;54120;53.504;49.426;2022-07-10T05:23:42;4.78;;;4.28;;
67191;SDS011;54120;53.504;49.426;2022-07-10T05:26:08;4.45;;;3.70;;
67191;SDS011;54120;53.504;49.426;2022-07-10T05:28:34;3.67;;;3.35;;
67191;SDS011;54120;53.504;49.426;2022-07-10T05:31:01;5.38;;;3.70;;
67191;SDS011;54120;53.504;49.426;2022-07-10T05:33:28;6.88;;;3.80;;
67191;SDS011;54120;53.504;49.426;2022-07-10T05:35:54;5.03;;;3.63;;
67191;SDS011;54120;53.504;49.426;2022-07-10T05:38:21;4.63;;;3.45;;
67191;SDS011;54120;53.504;49.426;2022-07-10T05:40:47;4.13;;;3.47;;
67191;SDS011;54120;53.504;49.426;2022-07-10T05:43:14;3.67;;;3.35;;
67191;SDS011;54120;53.504;49.426;2022-07-10T05:45:40;6.10;;;4.10;;
67191;SDS011;54120;53.504;49.426;2022-07-10T05:48:07;7.93;;;4.18;;
67191;SDS011;54120;53.504;49.426;2022-07-10T05:50:33;8.35;;;4.53;;
67191;SDS011;54120;53.504;49.426;2022-07-10T05:52:59;6.75;;;4.15;;
67191;SDS011;54120;53.504;49.426;2022-07-10T05:55:25;11.10;;;6.57;;
67191;SDS011;54120;53.504;49.426;2022-07-10T05:57:52;7.18;;;4.95;;
67191;SDS011;54120;53.504;49.426;2022-07-10T06:00:20;7.13;;;4.60;;
67191;SDS011;54120;53.504;49.426;2022-07-10T06:02:46;7.80;;;4.40;;
67191;SDS011;54120;53.504;49.426;2022-07-10T06:05:12;8.02;;;4.72;;
67191;SDS011;54120;53.504;49.426;2022-07-10T06:07:38;7.63;;;4.18;;
67191;SDS011;54120;53.504;49.426;2022-07-10T06:10:04;5.15;;;4.50;;
67191;SDS011;54120;53.504;49.426;2022-07-10T06:12:31;6.00;;;4.18;;
67191;SDS011;54120;53.504;49.426;2022-07-10T06:14:58;4.40;;;4.00;;
67191;SDS011;54120;53.504;49.426;2022-07-10T06:17:24;4.25;;;3.85;;
67191;SDS011;54120;53.504;49.426;2022-07-10T06:19:50;4.47;;;3.67;;
67191;SDS011;54120;53.504;49.426;2022-07-10T06:22:17;6.13;;;4.30;;
67191;SDS011;54120;53.504;49.426;2022-07-10T06:25:05;5.30;;;4.10;;
67191;SDS011;54120;53.504;49.426;2022-07-10T06:27:32;6.05;;;4.00;;
67191;SDS011;54120;53.504;49.426;2022-07-10T06:29:59;4.57;;;3.92;;
67191;SDS011;54120;53.504;49.426;2022-07-10T06:32:26;5.00;;;4.00;;
67191;SDS011;54120;53.504;49.426;2022-07-10T06:34:53;4.85;;;4.18;;
67191;SDS011;54120;53.504;49.426;2022-07-10T06:37:19;4.70;;;4.20;;
67191;SDS011;54120;53.504;49.426;2022-07-10T06:39:46;5.10;;;4.60;;
67191;SDS011;54120;53.504;49.426;2022-07-10T06:42:13;5.38;;;4.40;;
67191;SDS011;54120;53.504;49.426;2022-07-10T06:44:41;4.63;;;4.22;;
67191;SDS011;54120;53.504;49.426;2022-07-10T06:47:07;5.22;;;4.72;;
67191;SDS011;54120;53.504;49.426;2022-07-10T06:49:53;5.72;;;4.72;;
67191;SDS011;54120;53.504;49.426;2022-07-10T06:52:19;8.77;;;4.28;;
67191;SDS011;54120;53.504;49.426;2022-07-10T06:54:46;4.13;;;3.83;;
67191;SDS011;54120;53.504;49.426;2022-07-10T06:57:12;5.43;;;3.85;;
67191;SDS011;54120;53.504;49.426;2022-07-10T06:59:39;8.88;;;3.60;;
67191;SDS011;54120;53.504;49.426;2022-07-10T07:02:05;6.18;;;4.57;;
67191;SDS011;54120;53.504;49.426;2022-07-10T07:04:31;5.30;;;4.40;;
67191;SDS011;54120;53.504;49.426;2022-07-10T07:06:57;5.68;;;4.40;;
67191;SDS011;54120;53.504;49.426;2022-07-10T07:09:24;5.80;;;4.82;;
67191;SDS011;54120;53.504;49.426;2022-07-10T07:11:50;8.43;;;5.28;;
67191;SDS011;54120;53.504;49.426;2022-07-10T07:14:16;6.60;;;5.90;;
67191;SDS011;54120;53.504;49.426;2022-07-10T07:16:42;10.90;;;6.80;;
67191;SDS011;54120;53.504;49.426;2022-07-10T07:19:10;11.18;;;7.05;;
67191;SDS011;54120;53.504;49.426;2022-07-10T07:21:37;9.65;;;6.60;;
67191;SDS011;54120;53.504;49.426;2022-07-10T07:24:22;8.85;;;6.78;;
67191;SDS011;54120;53.504;49.426;2022-07-10T07:26:48;9.38;;;7.25;;
67191;SDS011;54120;53.504;49.426;2022-07-10T07:29:15;9.63;;;7.55;;
67191;SDS011;54120;53.504;49.426;2022-07-10T07:31:42;8.80;;;7.90;;
67191;SDS011;54120;53.504;49.426;2022-07-10T07:34:09;9.13;;;8.15;;
67191;SDS011;54120;53.504;49.426;2022-07-10T07:36:35;8.30;;;7.25;;
67191;SDS011;54120;53.504;49.426;2022-07-10T07:39:02;8.10;;;7.30;;
67191;SDS011;54120;53.504;49.426;2022-07-10T07:41:29;7.47;;;6.78;;
67191;SDS011;54120;53.504;49.426;2022-07-10T07:43:55;7.32;;;6.70;;
67191;SDS011;54120;53.504;49.426;2022-07-10T07:46:21;9.57;;;6.93;;
67191;SDS011;54120;53.504;49.426;2022-07-10T07:48:49;7.97;;;7.20;;
67191;SDS011;54120;53.504;49.426;2022-07-10T07:51:15;8.68;;;6.78;;
67191;SDS011;54120;53.504;49.426;2022-07-10T07:53:42;7.25;;;6.53;;
67191;SDS011;54120;53.504;49.426;2022-07-10T07:56:09;8.43;;;6.95;;
67191;SDS011;54120;53.504;49.426;2022-07-10T07:58:35;8.25;;;6.95;;
67191;SDS011;54120;53.504;49.426;2022-07-10T08:01:01;9.02;;;6.53;;
67191;SDS011;54120;53.504;49.426;2022-07-10T08:03:27;6.38;;;5.78;;
67191;SDS011;54120;53.504;49.426;2022-07-10T08:05:54;5.10;;;4.63;;
67191;SDS011;54120;53.504;49.426;2022-07-10T08:08:20;5.05;;;4.57;;
67191;SDS011;54120;53.504;49.426;2022-07-10T08:10:46;6.18;;;4.18;;
67191;SDS011;54120;53.504;49.426;2022-07-10T08:13:12;5.00;;;4.53;;
67191;SDS011;54120;53.504;49.426;2022-07-10T08:15:39;13.55;;;4.47;;
67191;SDS011;54120;53.504;49.426;2022-07-10T08:18:05;6.18;;;4.55;;
67191;SDS011;54120;53.504;49.426;2022-07-10T08:20:32;6.10;;;4.90;;
67191;SDS011;54120;53.504;49.426;2022-07-10T08:22:58;5.72;;;5.22;;
67191;SDS011;54120;53.504;49.426;2022-07-10T08:25:25;5.22;;;4.80;;
67191;SDS011;54120;53.504;49.426;2022-07-10T08:27:53;5.50;;;4.82;;
67191;SDS011;54120;53.504;49.426;2022-07-10T08:30:19;4.68;;;4.28;;
67191;SDS011;54120;53.504;49.426;2022-07-10T08:32:45;7.03;;;3.95;;
67191;SDS011;54120;53.504;49.426;2022-07-10T08:35:11;6.53;;;3.75;;
67191;SDS011;54120;53.504;49.426;2022-07-10T08:37:39;6.35;;;4.10;;
67191;SDS011;54120;53.504;49.426;2022-07-10T08:40:11;4.45;;;4.05;;
67191;SDS011;54120;53.504;49.426;2022-07-10T08:42:39;5.35;;;3.08;;
67191;SDS011;54120;53.504;49.426;2022-07-10T08:45:06;6.72;;;3.90;;
67191;SDS011;54120;53.504;49.426;2022-07-10T08:47:36;4.30;;;3.90;;
67191;SDS011;54120;53.504;49.426;2022-07-10T08:50:04;4.10;;;3.70;;
67191;SDS011;54120;53.504;49.426;2022-07-10T08:52:36;3.65;;;2.67;;
67191;SDS011;54120;53.504;49.426;2022-07-10T08:55:10;3.13;;;2.80;;
67191;SDS011;54120;53.504;49.426;2022-07-10T08:57:42;3.10;;;2.70;;
67191;SDS011;54120;53.504;49.426;2022-07-10T09:00:09;4.47;;;2.80;;
67191;SDS011;54120;53.504;49.426;2022-07-10T09:02:35;2.72;;;2.53;;
67191;SDS011;54120;53.504;49.426;2022-07-10T09:05:01;5.40;;;2.75;;
67191;SDS011;54120;53.504;49.426;2022-07-10T09:07:35;5.07;;;2.90;;
67191;SDS011;54120;53.504;49.426;2022-07-10T09:10:05;4.68;;;3.00;;
67191;SDS011;54120;53.504;49.426;2022-07-10T09:12:48;3.30;;;3.00;;
67191;SDS011;54120;53.504;49.426;2022-07-10T09:15:16;4.10;;;3.63;;
67191;SDS011;54120;53.504;49.426;2022-07-10T09:17:56;5.70;;;4.00;;
67191;SDS011;54120;53.504;49.426;2022-07-10T09:25:41;5.60;;;3.03;;
67191;SDS011;54120;53.504;49.426;2022-07-10T09:28:08;2.78;;;2.58;;
67191;SDS011;54120;53.504;49.426;2022-07-10T09:30:38;2.80;;;2.10;;
67191;SDS011;54120;53.504;49.426;2022-07-10T09:33:24;3.30;;;2.10;;
67191;SDS011;54120;53.504;49.426;2022-07-10T09:35:55;2.40;;;1.98;;
67191;SDS011;54120;53.504;49.426;2022-07-10T09:41:16;2.65;;;2.45;;
67191;SDS011;54120;53.504;49.426;2022-07-10T09:43:49;2.55;;;2.35;;
67191;SDS011;54120;53.504;49.426;2022-07-10T09:46:17;2.97;;;2.78;;
67191;SDS011;54120;53.504;49.426;2022-07-10T09:48:44;2.45;;;2.25;;
67191;SDS011;54120;53.504;49.426;2022-07-10T09:51:11;3.42;;;2.63;;
67191;SDS011;54120;53.504;49.426;2022-07-10T09:53:38;2.40;;;2.20;;
67191;SDS011;54120;53.504;49.426;2022-07-10T09:56:06;4.55;;;3.30;;
67191;SDS011;54120;53.504;49.426;2022-07-10T09:58:34;4.32;;;2.80;;
67191;SDS011;54120;53.504;49.426;2022-07-10T10:01:02;3.90;;;2.80;;
67191;SDS011;54120;53.504;49.426;2022-07-10T10:03:33;10.32;;;2.65;;
67191;SDS011;54120;53.504;49.426;2022-07-10T10:06:15;2.63;;;2.42;;
67191;SDS011;54120;53.504;49.426;2022-07-10T10:11:37;2.53;;;2.33;;
67191;SDS011;54120;53.504;49.426;2022-07-10T10:14:07;2.22;;;2.13;;
67191;SDS011;54120;53.504;49.426;2022-07-10T10:16:34;2.85;;;1.80;;
67191;SDS011;54120;53.504;49.426;2022-07-10T10:19:01;2.40;;;2.08;;
67191;SDS011;54120;53.504;49.426;2022-07-10T10:21:46;2.10;;;1.90;;
67191;SDS011;54120;53.504;49.426;2022-07-10T10:24:13;2.50;;;2.30;;
67191;SDS011;54120;53.504;49.426;2022-07-10T10:26:41;3.90;;;2.58;;
67191;SDS011;54120;53.504;49.426;2022-07-10T10:29:08;3.63;;;2.75;;
67191;SDS011;54120;53.504;49.426;2022-07-10T10:31:35;7.28;;;2.33;;
67191;SDS011;54120;53.504;49.426;2022-07-10T10:34:02;3.55;;;2.00;;
67191;SDS011;54120;53.504;49.426;2022-07-10T10:39:16;3.05;;;2.03;;
67191;SDS011;54120;53.504;49.426;2022-07-10T10:41:53;12.30;;;2.60;;
67191;SDS011;54120;53.504;49.426;2022-07-10T10:44:21;2.60;;;2.40;;
67191;SDS011;54120;53.504;49.426;2022-07-10T10:49:50;2.00;;;1.80;;
67191;SDS011;54120;53.504;49.426;2022-07-10T10:52:18;4.38;;;2.40;;
67191;SDS011;54120;53.504;49.426;2022-07-10T10:59:58;15.93;;;2.72;;
67191;SDS011;54120;53.504;49.426;2022-07-10T11:02:28;3.55;;;2.53;;
67191;SDS011;54120;53.504;49.426;2022-07-10T11:07:56;2.60;;;2.40;;
67191;SDS011;54120;53.504;49.426;2022-07-10T11:10:32;5.40;;;2.45;;
67191;SDS011;54120;53.504;49.426;2022-07-10T11:13:13;2.75;;;2.55;;
67191;SDS011;54120;53.504;49.426;2022-07-10T11:15:47;2.70;;;2.50;;
67191;SDS011;54120;53.504;49.426;2022-07-10T11:18:15;2.10;;;1.90;;
67191;SDS011;54120;53.504;49.426;2022-07-10T11:20:44;2.55;;;1.77;;
67191;SDS011;54120;53.504;49.426;2022-07-10T11:29:05;2.30;;;2.10;;
67191;SDS011;54120;53.504;49.426;2022-07-10T11:31:32;2.25;;;2.10;;
67191;SDS011;54120;53.504;49.426;2022-07-10T11:34:10;2.45;;;2.13;;
67191;SDS011;54120;53.504;49.426;2022-07-10T11:36:38;3.85;;;1.90;;
67191;SDS011;54120;53.504;49.426;2022-07-10T11:39:06;5.03;;;2.10;;
67191;SDS011;54120;53.504;49.426;2022-07-10T11:41:33;2.00;;;1.90;;
67191;SDS011;54120;53.504;49.426;2022-07-10T11:46:38;2.03;;;1.83;;
67191;SDS011;54120;53.504;49.426;2022-07-10T11:49:05;3.10;;;2.90;;
67191;SDS011;54120;53.504;49.426;2022-07-10T11:51:34;4.10;;;2.30;;
67191;SDS011;54120;53.504;49.426;2022-07-10T11:54:03;7.45;;;3.20;;
67191;SDS011;54120;53.504;49.426;2022-07-10T11:56:32;4.63;;;2.35;;
67191;SDS011;54120;53.504;49.426;2022-07-10T11:59:05;5.93;;;3.25;;
67191;SDS011;54120;53.504;49.426;2022-07-10T12:01:33;3.78;;;2.67;;
67191;SDS011;54120;53.504;49.426;2022-07-10T12:04:20;3.60;;;2.30;;
67191;SDS011;54120;53.504;49.426;2022-07-10T12:06:49;2.60;;;2.40;;
67191;SDS011;54120;53.504;49.426;2022-07-10T12:09:17;2.58;;;2.33;;
67191;SDS011;54120;53.504;49.426;2022-07-10T12:11:58;5.72;;;2.58;;
67191;SDS011;54120;53.504;49.426;2022-07-10T12:14:29;3.42;;;2.10;;
67191;SDS011;54120;53.504;49.426;2022-07-10T12:16:56;2.17;;;2.08;;
67191;SDS011;54120;53.504;49.426;2022-07-10T12:19:24;4.47;;;2.00;;
67191;SDS011;54120;53.504;49.426;2022-07-10T12:21:56;3.27;;;2.40;;
67191;SDS011;54120;53.504;49.426;2022-07-10T12:24:24;2.15;;;2.03;;
67191;SDS011;54120;53.504;49.426;2022-07-10T12:26:52;3.88;;;2.00;;
67191;SDS011;54120;53.504;49.426;2022-07-10T12:29:21;2.65;;;2.00;;
67191;SDS011;54120;53.504;49.426;2022-07-10T12:31:49;6.82;;;1.90;;
67191;SDS011;54120;53.504;49.426;2022-07-10T12:34:17;4.93;;;2.40;;
67191;SDS011;54120;53.504;49.426;2022-07-10T12:36:50;3.78;;;3.40;;
67191;SDS011;54120;53.504;49.426;2022-07-10T12:41:54;2.47;;;2.30;;
67191;SDS011;54120;53.504;49.426;2022-07-10T12:44:33;2.17;;;2.05;;
67191;SDS011;54120;53.504;49.426;2022-07-10T12:47:03;3.13;;;2.17;;
67191;SDS011;54120;53.504;49.426;2022-07-10T12:52:37;5.38;;;2.20;;
67191;SDS011;54120;53.504;49.426;2022-07-10T12:58:08;3.08;;;2.88;;
67191;SDS011;54120;53.504;49.426;2022-07-10T13:00:35;3.72;;;2.38;;
67191;SDS011;54120;53.504;49.426;2022-07-10T13:03:10;2.60;;;2.28;;
67191;SDS011;54120;53.504;49.426;2022-07-10T13:05:43;3.22;;;2.40;;
67191;SDS011;54120;53.504;49.426;2022-07-10T13:08:10;3.75;;;2.30;;
67191;SDS011;54120;53.504;49.426;2022-07-10T13:10:51;4.45;;;2.20;;
67191;SDS011;54120;53.504;49.426;2022-07-10T13:13:19;3.40;;;2.58;;
67191;SDS011;54120;53.504;49.426;2022-07-10T13:15:46;3.40;;;2.53;;
67191;SDS011;54120;53.504;49.426;2022-07-10T13:18:23;7.07;;;4.85;;
67191;SDS011;54120;53.504;49.426;2022-07-10T13:20:54;2.25;;;2.00;;
67191;SDS011;54120;53.504;49.426;2022-07-10T13:23:21;2.15;;;2.00;;
67191;SDS011;54120;53.504;49.426;2022-07-10T13:25:49;3.35;;;2.03;;
67191;SDS011;54120;53.504;49.426;2022-07-10T13:28:16;2.00;;;1.90;;
67191;SDS011;54120;53.504;49.426;2022-07-10T13:30:43;3.38;;;1.98;;
67191;SDS011;54120;53.504;49.426;2022-07-10T13:33:09;1.92;;;1.80;;
67191;SDS011;54120;53.504;49.426;2022-07-10T13:35:35;2.25;;;1.95;;
67191;SDS011;54120;53.504;49.426;2022-07-10T13:38:02;2.00;;;1.88;;
67191;SDS011;54120;53.504;49.426;2022-07-10T13:40:30;2.55;;;2.13;;
67191;SDS011;54120;53.504;49.426;2022-07-10T13:42:57;2.53;;;2.33;;
67191;SDS011;54120;53.504;49.426;2022-07-10T13:45:24;2.78;;;2.42;;
67191;SDS011;54120;53.504;49.426;2022-07-10T13:47:51;6.13;;;2.20;;
67191;SDS011;54120;53.504;49.426;2022-07-10T13:50:20;6.20;;;3.65;;
67191;SDS011;54120;53.504;49.426;2022-07-10T13:52:47;4.03;;;2.85;;
67191;SDS011;54120;53.504;49.426;2022-07-10T13:55:13;3.90;;;2.90;;
67191;SDS011;54120;53.504;49.426;2022-07-10T13:57:39;4.03;;;3.30;;
67191;SDS011;54120;53.504;49.426;2022-07-10T14:00:06;5.13;;;3.47;;
67191;SDS011;54120;53.504;49.426;2022-07-10T14:02:32;9.10;;;3.65;;
67191;SDS011;54120;53.504;49.426;2022-07-10T14:04:59;4.32;;;3.30;;
67191;SDS011;54120;53.504;49.426;2022-07-10T14:07:25;4.47;;;3.75;;
67191;SDS011;54120;53.504;49.426;2022-07-10T14:09:51;4.90;;;3.10;;
67191;SDS011;54120;53.504;49.426;2022-07-10T14:12:17;2.67;;;2.22;;
67191;SDS011;54120;53.504;49.426;2022-07-10T14:14:44;2.47;;;2.28;;
67191;SDS011;54120;53.504;49.426;2022-07-10T14:17:10;2.55;;;2.35;;
67191;SDS011;54120;53.504;49.426;2022-07-10T14:19:37;4.25;;;2.53;;
67191;SDS011;54120;53.504;49.426;2022-07-10T14:22:04;6.07;;;2.80;;
67191;SDS011;54120;53.504;49.426;2022-07-10T14:24:30;3.47;;;2.80;;
67191;SDS011;54120;53.504;49.426;2022-07-10T14:26:56;3.05;;;2.85;;
67191;SDS011;54120;53.504;49.426;2022-07-10T14:29:22;4.07;;;3.10;;
67191;SDS011;54120;53.504;49.426;2022-07-10T14:31:48;3.83;;;3.10;;
67191;SDS011;54120;53.504;49.426;2022-07-10T14:34:41;3.10;;;2.80;;
67191;SDS011;54120;53.504;49.426;2022-07-10T14:37:07;6.55;;;3.33;;
67191;SDS011;54120;53.504;49.426;2022-07-10T14:39:33;3.72;;;3.42;;
67191;SDS011;54120;53.504;49.426;2022-07-10T14:41:59;3.70;;;3.33;;
67191;SDS011;54120;53.504;49.426;2022-07-10T14:44:26;7.13;;;3.58;;
67191;SDS011;54120;53.504;49.426;2022-07-10T14:46:53;7.22;;;3.25;;
67191;SDS011;54120;53.504;49.426;2022-07-10T14:49:19;4.15;;;3.05;;
67191;SDS011;54120;53.504;49.426;2022-07-10T14:51:45;3.33;;;3.08;;
67191;SDS011;54120;53.504;49.426;2022-07-10T14:54:11;4.13;;;3.15;;
67191;SDS011;54120;53.504;49.426;2022-07-10T14:56:37;4.90;;;3.40;;
67191;SDS011;54120;53.504;49.426;2022-07-10T14:59:04;5.72;;;3.17;;
67191;SDS011;54120;53.504;49.426;2022-07-10T15:01:30;3.75;;;3.45;;
67191;SDS011;54120;53.504;49.426;2022-07-10T15:03:56;4.03;;;3.10;;
67191;SDS011;54120;53.504;49.426;2022-07-10T15:06:24;8.35;;;3.80;;
67191;SDS011;54120;53.504;49.426;2022-07-10T15:08:50;4.88;;;3.97;;
67191;SDS011;54120;53.504;49.426;2022-07-10T15:11:17;4.78;;;3.70;;